sensor_id;sensor_type;location;lat;lon;timestamp;temperature;humidity
38090;DHT22;23904;52.322;10.232;2023-02-12T00:00:42;7.60;99.90
38090;DHT22;23904;52.322;10.232;2023-02-12T00:03:10;7.60;99.90
38090;DHT22;23904;52.322;10.232;2023-02-12T00:05:37;7.60;99.90
38090;DHT22;23904;52.322;10.232;2023-02-12T00:08:04;7.60;99.90
38090;DHT22;23904;52.322;10.232;2023-02-12T00:10:30;7.60;99.90
38090;DHT22;23904;52.322;10.232;2023-02-12T00:12:56;7.60;99.90
38090;DHT22;23904;52.322;10.232;2023-02-12T00:15:22;7.60;99.90
38090;DHT22;23904;52.322;10.232;2023-02-12T00:17:50;7.60;99.90
38090;DHT22;23904;52.322;10.232;2023-02-12T00:20:16;7.60;99.90
38090;DHT22;23904;52.322;10.232;2023-02-12T00:22:42;7.60;99.90
38090;DHT22;23904;52.322;10.232;2023-02-12T00:25:07;7.60;99.90
38090;DHT22;23904;52.322;10.232;2023-02-12T00:27:34;7.60;99.90
38090;DHT22;23904;52.322;10.232;2023-02-12T00:30:01;7.60;99.90
38090;DHT22;23904;52.322;10.232;2023-02-12T00:32:26;7.60;99.90
38090;DHT22;23904;52.322;10.232;2023-02-12T00:34:53;7.60;99.90
38090;DHT22;23904;52.322;10.232;2023-02-12T00:37:19;7.60;99.90
38090;DHT22;23904;52.322;10.232;2023-02-12T00:39:45;7.60;99.90
38090;DHT22;23904;52.322;10.232;2023-02-12T00:42:11;7.60;99.90
38090;DHT22;23904;52.322;10.232;2023-02-12T00:44:36;7.60;99.90
38090;DHT22;23904;52.322;10.232;2023-02-12T00:47:03;7.60;99.90
38090;DHT22;23904;52.322;10.232;2023-02-12T00:49:31;7.60;99.90
38090;DHT22;23904;52.322;10.232;2023-02-12T00:52:03;7.60;99.90
38090;DHT22;23904;52.322;10.232;2023-02-12T00:54:30;7.60;99.90
38090;DHT22;23904;52.322;10.232;2023-02-12T00:56:56;7.60;99.90
38090;DHT22;23904;52.322;10.232;2023-02-12T00:59:23;7.60;99.90
38090;DHT22;23904;52.322;10.232;2023-02-12T01:01:50;7.60;99.90
38090;DHT22;23904;52.322;10.232;2023-02-12T01:04:17;7.60;99.90
38090;DHT22;23904;52.322;10.232;2023-02-12T01:06:42;7.60;99.90
38090;DHT22;23904;52.322;10.232;2023-02-12T01:09:08;7.60;99.90
38090;DHT22;23904;52.322;10.232;2023-02-12T01:11:34;7.60;99.90
38090;DHT22;23904;52.322;10.232;2023-02-12T01:13:59;7.60;99.90
38090;DHT22;23904;52.322;10.232;2023-02-12T01:16:25;7.50;99.90
38090;DHT22;23904;52.322;10.232;2023-02-12T01:18:53;7.50;99.90
38090;DHT22;23904;52.322;10.232;2023-02-12T01:21:26;7.50;99.90
38090;DHT22;23904;52.322;10.232;2023-02-12T01:23:53;7.50;99.90
38090;DHT22;23904;52.322;10.232;2023-02-12T01:26:20;7.50;99.90
38090;DHT22;23904;52.322;10.232;2023-02-12T01:28:51;7.50;99.90
38090;DHT22;23904;52.322;10.232;2023-02-12T01:31:27;7.60;99.90
38090;DHT22;23904;52.322;10.232;2023-02-12T01:33:55;7.50;99.90
38090;DHT22;23904;52.322;10.232;2023-02-12T01:36:23;7.50;99.90
38090;DHT22;23904;52.322;10.232;2023-02-12T01:38:49;7.50;99.90
38090;DHT22;23904;52.322;10.232;2023-02-12T01:41:20;7.50;99.90
38090;DHT22;23904;52.322;10.232;2023-02-12T01:44:14;7.50;99.90
38090;DHT22;23904;52.322;10.232;2023-02-12T01:46:44;7.50;99.90
38090;DHT22;23904;52.322;10.232;2023-02-12T01:49:18;7.50;99.90
38090;DHT22;23904;52.322;10.232;2023-02-12T01:52:22;7.50;99.90
38090;DHT22;23904;52.322;10.232;2023-02-12T01:54:49;7.50;99.90
38090;DHT22;23904;52.322;10.232;2023-02-12T01:57:17;7.50;99.90
38090;DHT22;23904;52.322;10.232;2023-02-12T01:59:44;7.50;99.90
38090;DHT22;23904;52.322;10.232;2023-02-12T02:02:11;7.50;99.90
38090;DHT22;23904;52.322;10.232;2023-02-12T02:04:42;7.50;99.90
38090;DHT22;23904;52.322;10.232;2023-02-12T02:07:13;7.50;99.90
38090;DHT22;23904;52.322;10.232;2023-02-12T02:09:39;7.50;99.90
38090;DHT22;23904;52.322;10.232;2023-02-12T02:12:06;7.50;99.90
38090;DHT22;23904;52.322;10.232;2023-02-12T02:14:55;7.40;99.90
38090;DHT22;23904;52.322;10.232;2023-02-12T02:17:44;7.40;99.90
38090;DHT22;23904;52.322;10.232;2023-02-12T02:27:04;7.50;99.90
38090;DHT22;23904;52.322;10.232;2023-02-12T02:30:05;7.50;99.90
38090;DHT22;23904;52.322;10.232;2023-02-12T02:32:40;7.50;99.90
38090;DHT22;23904;52.322;10.232;2023-02-12T02:35:09;7.40;99.90
38090;DHT22;23904;52.322;10.232;2023-02-12T02:40:26;7.40;99.90
38090;DHT22;23904;52.322;10.232;2023-02-12T02:43:15;7.40;99.90
38090;DHT22;23904;52.322;10.232;2023-02-12T02:45:47;7.40;99.90
38090;DHT22;23904;52.322;10.232;2023-02-12T02:48:26;7.40;99.90
38090;DHT22;23904;52.322;10.232;2023-02-12T02:51:07;7.40;99.90
38090;DHT22;23904;52.322;10.232;2023-02-12T02:53:48;7.40;99.90
38090;DHT22;23904;52.322;10.232;2023-02-12T02:56:19;7.40;99.90
38090;DHT22;23904;52.322;10.232;2023-02-12T02:58:57;7.40;99.90
38090;DHT22;23904;52.322;10.232;2023-02-12T03:01:35;7.40;99.90
38090;DHT22;23904;52.322;10.232;2023-02-12T03:04:11;7.40;99.90
38090;DHT22;23904;52.322;10.232;2023-02-12T03:06:57;7.40;99.90
38090;DHT22;23904;52.322;10.232;2023-02-12T03:09:30;7.40;99.90
38090;DHT22;23904;52.322;10.232;2023-02-12T03:12:13;7.40;99.90
38090;DHT22;23904;52.322;10.232;2023-02-12T03:14:47;7.40;99.90
38090;DHT22;23904;52.322;10.232;2023-02-12T03:17:24;7.40;99.90
38090;DHT22;23904;52.322;10.232;2023-02-12T03:20:00;7.40;99.90
38090;DHT22;23904;52.322;10.232;2023-02-12T03:22:33;7.40;99.90
38090;DHT22;23904;52.322;10.232;2023-02-12T03:25:11;7.40;99.90
38090;DHT22;23904;52.322;10.232;2023-02-12T03:27:46;7.30;99.90
38090;DHT22;23904;52.322;10.232;2023-02-12T03:30:15;7.30;99.90
38090;DHT22;23904;52.322;10.232;2023-02-12T03:33:03;7.40;99.90
38090;DHT22;23904;52.322;10.232;2023-02-12T03:35:41;7.40;99.90
38090;DHT22;23904;52.322;10.232;2023-02-12T03:38:55;7.40;99.90
38090;DHT22;23904;52.322;10.232;2023-02-12T03:41:29;7.40;99.90
38090;DHT22;23904;52.322;10.232;2023-02-12T03:44:06;7.30;99.90
38090;DHT22;23904;52.322;10.232;2023-02-12T03:46:43;7.40;99.90
38090;DHT22;23904;52.322;10.232;2023-02-12T03:49:22;7.40;99.90
38090;DHT22;23904;52.322;10.232;2023-02-12T03:51:51;7.40;99.90
38090;DHT22;23904;52.322;10.232;2023-02-12T03:54:19;7.40;99.90
38090;DHT22;23904;52.322;10.232;2023-02-12T03:57:01;7.30;99.90
38090;DHT22;23904;52.322;10.232;2023-02-12T03:59:28;7.30;99.90
38090;DHT22;23904;52.322;10.232;2023-02-12T04:01:57;7.30;99.90
38090;DHT22;23904;52.322;10.232;2023-02-12T04:04:24;7.30;99.90
38090;DHT22;23904;52.322;10.232;2023-02-12T04:06:51;7.40;99.90
38090;DHT22;23904;52.322;10.232;2023-02-12T04:09:18;7.30;99.90
38090;DHT22;23904;52.322;10.232;2023-02-12T04:18:18;7.30;99.90
38090;DHT22;23904;52.322;10.232;2023-02-12T04:21:01;7.30;99.90
38090;DHT22;23904;52.322;10.232;2023-02-12T04:23:53;7.30;99.90
38090;DHT22;23904;52.322;10.232;2023-02-12T04:26:47;7.30;99.90
38090;DHT22;23904;52.322;10.232;2023-02-12T04:32:24;7.40;99.90
38090;DHT22;23904;52.322;10.232;2023-02-12T04:35:06;7.30;99.90
38090;DHT22;23904;52.322;10.232;2023-02-12T04:37:40;7.30;99.90
38090;DHT22;23904;52.322;10.232;2023-02-12T04:40:11;7.40;99.90
38090;DHT22;23904;52.322;10.232;2023-02-12T04:42:43;7.40;99.90
38090;DHT22;23904;52.322;10.232;2023-02-12T04:45:15;7.30;99.90
38090;DHT22;23904;52.322;10.232;2023-02-12T04:47:45;7.40;99.90
38090;DHT22;23904;52.322;10.232;2023-02-12T04:50:11;7.30;99.90
38090;DHT22;23904;52.322;10.232;2023-02-12T04:52:37;7.30;99.90
38090;DHT22;23904;52.322;10.232;2023-02-12T04:55:03;7.30;99.90
38090;DHT22;23904;52.322;10.232;2023-02-12T04:57:28;7.30;99.90
38090;DHT22;23904;52.322;10.232;2023-02-12T04:59:54;7.30;99.90
38090;DHT22;23904;52.322;10.232;2023-02-12T05:02:19;7.30;99.90
38090;DHT22;23904;52.322;10.232;2023-02-12T05:04:48;7.30;99.90
38090;DHT22;23904;52.322;10.232;2023-02-12T05:07:14;7.30;99.90
38090;DHT22;23904;52.322;10.232;2023-02-12T05:09:40;7.30;99.90
38090;DHT22;23904;52.322;10.232;2023-02-12T05:12:06;7.30;99.90
38090;DHT22;23904;52.322;10.232;2023-02-12T05:14:32;7.30;99.90
38090;DHT22;23904;52.322;10.232;2023-02-12T05:16:57;7.30;99.90
38090;DHT22;23904;52.322;10.232;2023-02-12T05:19:23;7.30;99.90
38090;DHT22;23904;52.322;10.232;2023-02-12T05:21:49;7.30;99.90
38090;DHT22;23904;52.322;10.232;2023-02-12T05:24:16;7.30;99.90
38090;DHT22;23904;52.322;10.232;2023-02-12T05:26:41;7.30;99.90
38090;DHT22;23904;52.322;10.232;2023-02-12T05:29:07;7.30;99.90
38090;DHT22;23904;52.322;10.232;2023-02-12T05:31:33;7.30;99.90
38090;DHT22;23904;52.322;10.232;2023-02-12T05:33:59;7.30;99.90
38090;DHT22;23904;52.322;10.232;2023-02-12T05:36:26;7.30;99.90
38090;DHT22;23904;52.322;10.232;2023-02-12T05:38:56;7.30;99.90
38090;DHT22;23904;52.322;10.232;2023-02-12T05:41:23;7.30;99.90
38090;DHT22;23904;52.322;10.232;2023-02-12T05:43:50;7.30;99.90
38090;DHT22;23904;52.322;10.232;2023-02-12T05:46:17;7.30;99.90
38090;DHT22;23904;52.322;10.232;2023-02-12T05:48:44;7.30;99.90
38090;DHT22;23904;52.322;10.232;2023-02-12T05:51:18;7.30;99.90
38090;DHT22;23904;52.322;10.232;2023-02-12T05:53:46;7.30;99.90
38090;DHT22;23904;52.322;10.232;2023-02-12T05:56:13;7.30;99.90
38090;DHT22;23904;52.322;10.232;2023-02-12T05:58:42;7.30;99.90
38090;DHT22;23904;52.322;10.232;2023-02-12T06:01:25;7.30;99.90
38090;DHT22;23904;52.322;10.232;2023-02-12T06:03:53;7.30;99.90
38090;DHT22;23904;52.322;10.232;2023-02-12T06:06:19;7.30;99.90
38090;DHT22;23904;52.322;10.232;2023-02-12T06:08:47;7.30;99.90
38090;DHT22;23904;52.322;10.232;2023-02-12T06:11:14;7.30;99.90
38090;DHT22;23904;52.322;10.232;2023-02-12T06:13:41;7.30;99.90
38090;DHT22;23904;52.322;10.232;2023-02-12T06:16:24;7.30;99.90
38090;DHT22;23904;52.322;10.232;2023-02-12T06:18:53;7.30;99.90
38090;DHT22;23904;52.322;10.232;2023-02-12T06:21:20;7.30;99.90
38090;DHT22;23904;52.322;10.232;2023-02-12T06:23:47;7.30;99.90
38090;DHT22;23904;52.322;10.232;2023-02-12T06:26:14;7.40;99.90
38090;DHT22;23904;52.322;10.232;2023-02-12T06:28:40;7.30;99.90
38090;DHT22;23904;52.322;10.232;2023-02-12T06:31:18;7.40;99.90
38090;DHT22;23904;52.322;10.232;2023-02-12T06:33:44;7.30;99.90
38090;DHT22;23904;52.322;10.232;2023-02-12T06:36:10;7.30;99.90
38090;DHT22;23904;52.322;10.232;2023-02-12T06:38:35;7.20;99.90
38090;DHT22;23904;52.322;10.232;2023-02-12T06:41:02;7.20;99.90
38090;DHT22;23904;52.322;10.232;2023-02-12T06:43:28;7.20;99.90
38090;DHT22;23904;52.322;10.232;2023-02-12T06:45:53;7.30;99.90
38090;DHT22;23904;52.322;10.232;2023-02-12T06:48:19;7.30;99.90
38090;DHT22;23904;52.322;10.232;2023-02-12T06:50:45;7.30;99.90
38090;DHT22;23904;52.322;10.232;2023-02-12T06:53:10;7.20;99.90
38090;DHT22;23904;52.322;10.232;2023-02-12T06:55:36;7.20;99.90
38090;DHT22;23904;52.322;10.232;2023-02-12T06:58:01;7.20;99.90
38090;DHT22;23904;52.322;10.232;2023-02-12T07:00:27;7.20;99.90
38090;DHT22;23904;52.322;10.232;2023-02-12T07:02:55;7.10;99.90
38090;DHT22;23904;52.322;10.232;2023-02-12T07:05:21;7.20;99.90
38090;DHT22;23904;52.322;10.232;2023-02-12T07:07:48;7.20;99.90
38090;DHT22;23904;52.322;10.232;2023-02-12T07:10:13;7.30;99.90
38090;DHT22;23904;52.322;10.232;2023-02-12T07:12:39;7.20;99.90
38090;DHT22;23904;52.322;10.232;2023-02-12T07:15:04;7.20;99.90
38090;DHT22;23904;52.322;10.232;2023-02-12T07:17:30;7.30;99.90
38090;DHT22;23904;52.322;10.232;2023-02-12T07:19:56;7.20;99.90
38090;DHT22;23904;52.322;10.232;2023-02-12T07:22:22;7.20;99.90
38090;DHT22;23904;52.322;10.232;2023-02-12T07:24:47;7.20;99.90
38090;DHT22;23904;52.322;10.232;2023-02-12T07:27:13;7.20;99.90
38090;DHT22;23904;52.322;10.232;2023-02-12T07:29:39;7.20;99.90
38090;DHT22;23904;52.322;10.232;2023-02-12T07:32:05;7.20;99.90
38090;DHT22;23904;52.322;10.232;2023-02-12T07:34:32;7.20;99.90
38090;DHT22;23904;52.322;10.232;2023-02-12T07:36:57;7.30;99.90
38090;DHT22;23904;52.322;10.232;2023-02-12T07:39:23;7.20;99.90
38090;DHT22;23904;52.322;10.232;2023-02-12T07:41:49;7.20;99.90
38090;DHT22;23904;52.322;10.232;2023-02-12T07:44:14;7.20;99.90
38090;DHT22;23904;52.322;10.232;2023-02-12T07:46:43;7.10;99.90
38090;DHT22;23904;52.322;10.232;2023-02-12T07:49:14;7.10;99.90
38090;DHT22;23904;52.322;10.232;2023-02-12T07:51:44;7.10;99.90
38090;DHT22;23904;52.322;10.232;2023-02-12T07:54:11;7.20;99.90
38090;DHT22;23904;52.322;10.232;2023-02-12T07:56:37;7.20;99.90
38090;DHT22;23904;52.322;10.232;2023-02-12T07:59:06;7.20;99.90
38090;DHT22;23904;52.322;10.232;2023-02-12T08:01:37;7.20;99.90
38090;DHT22;23904;52.322;10.232;2023-02-12T08:04:06;7.30;99.90
38090;DHT22;23904;52.322;10.232;2023-02-12T08:06:36;7.30;99.90
38090;DHT22;23904;52.322;10.232;2023-02-12T08:09:05;7.30;99.90
38090;DHT22;23904;52.322;10.232;2023-02-12T08:11:34;7.30;99.90
38090;DHT22;23904;52.322;10.232;2023-02-12T08:14:01;7.20;99.90
38090;DHT22;23904;52.322;10.232;2023-02-12T08:16:27;7.20;99.90
38090;DHT22;23904;52.322;10.232;2023-02-12T08:18:54;7.20;99.90
38090;DHT22;23904;52.322;10.232;2023-02-12T08:21:22;7.20;99.90
38090;DHT22;23904;52.322;10.232;2023-02-12T08:23:50;7.30;99.90
38090;DHT22;23904;52.322;10.232;2023-02-12T08:26:24;7.30;99.90
38090;DHT22;23904;52.322;10.232;2023-02-12T08:29:11;7.40;99.90
38090;DHT22;23904;52.322;10.232;2023-02-12T08:31:41;7.30;99.90
38090;DHT22;23904;52.322;10.232;2023-02-12T08:34:22;7.40;99.90
38090;DHT22;23904;52.322;10.232;2023-02-12T08:36:50;7.40;99.90
38090;DHT22;23904;52.322;10.232;2023-02-12T08:39:18;7.40;99.90
38090;DHT22;23904;52.322;10.232;2023-02-12T08:41:44;7.40;99.90
38090;DHT22;23904;52.322;10.232;2023-02-12T08:44:11;7.60;99.90
38090;DHT22;23904;52.322;10.232;2023-02-12T08:46:39;7.70;99.90
38090;DHT22;23904;52.322;10.232;2023-02-12T08:49:11;7.70;99.90
38090;DHT22;23904;52.322;10.232;2023-02-12T08:51:43;7.70;99.90
38090;DHT22;23904;52.322;10.232;2023-02-12T08:54:12;7.70;99.90
38090;DHT22;23904;52.322;10.232;2023-02-12T08:56:39;7.60;99.90
38090;DHT22;23904;52.322;10.232;2023-02-12T08:59:06;7.70;99.90
38090;DHT22;23904;52.322;10.232;2023-02-12T09:01:35;7.70;99.90
38090;DHT22;23904;52.322;10.232;2023-02-12T09:04:06;7.70;99.90
38090;DHT22;23904;52.322;10.232;2023-02-12T09:06:34;7.60;99.90
38090;DHT22;23904;52.322;10.232;2023-02-12T09:09:00;7.60;99.90
38090;DHT22;23904;52.322;10.232;2023-02-12T09:11:28;7.60;99.90
38090;DHT22;23904;52.322;10.232;2023-02-12T09:14:00;7.70;99.90
38090;DHT22;23904;52.322;10.232;2023-02-12T09:16:28;7.70;99.90
38090;DHT22;23904;52.322;10.232;2023-02-12T09:18:55;7.70;99.90
38090;DHT22;23904;52.322;10.232;2023-02-12T09:21:22;7.70;99.90
38090;DHT22;23904;52.322;10.232;2023-02-12T09:23:48;7.70;99.90
38090;DHT22;23904;52.322;10.232;2023-02-12T09:26:16;7.70;99.90
38090;DHT22;23904;52.322;10.232;2023-02-12T09:28:45;7.70;99.90
38090;DHT22;23904;52.322;10.232;2023-02-12T09:31:14;7.80;99.90
38090;DHT22;23904;52.322;10.232;2023-02-12T09:33:50;7.70;99.90
38090;DHT22;23904;52.322;10.232;2023-02-12T09:36:22;7.70;99.90
38090;DHT22;23904;52.322;10.232;2023-02-12T09:38:48;7.80;99.90
38090;DHT22;23904;52.322;10.232;2023-02-12T09:47:39;7.80;99.90
38090;DHT22;23904;52.322;10.232;2023-02-12T09:52:37;7.70;99.90
38090;DHT22;23904;52.322;10.232;2023-02-12T09:55:04;7.80;99.90
38090;DHT22;23904;52.322;10.232;2023-02-12T09:57:32;7.80;99.90
38090;DHT22;23904;52.322;10.232;2023-02-12T10:00:14;7.80;99.90
38090;DHT22;23904;52.322;10.232;2023-02-12T10:02:43;7.80;99.90
38090;DHT22;23904;52.322;10.232;2023-02-12T10:05:18;7.80;99.90
38090;DHT22;23904;52.322;10.232;2023-02-12T10:07:52;7.90;99.90
38090;DHT22;23904;52.322;10.232;2023-02-12T10:11:00;7.90;99.90
38090;DHT22;23904;52.322;10.232;2023-02-12T10:13:49;7.90;99.90
38090;DHT22;23904;52.322;10.232;2023-02-12T10:19:29;8.00;99.90
38090;DHT22;23904;52.322;10.232;2023-02-12T10:22:34;7.90;99.90
38090;DHT22;23904;52.322;10.232;2023-02-12T10:28:27;8.00;99.90
38090;DHT22;23904;52.322;10.232;2023-02-12T10:31:18;8.00;99.90
38090;DHT22;23904;52.322;10.232;2023-02-12T10:33:48;8.10;99.90
38090;DHT22;23904;52.322;10.232;2023-02-12T10:36:42;8.10;99.90
38090;DHT22;23904;52.322;10.232;2023-02-12T10:44:18;8.10;99.90
38090;DHT22;23904;52.322;10.232;2023-02-12T10:46:44;8.10;99.90
38090;DHT22;23904;52.322;10.232;2023-02-12T10:49:12;8.20;99.90
38090;DHT22;23904;52.322;10.232;2023-02-12T10:51:44;8.20;99.90
38090;DHT22;23904;52.322;10.232;2023-02-12T10:54:37;8.20;99.90
38090;DHT22;23904;52.322;10.232;2023-02-12T10:57:21;8.20;99.90
38090;DHT22;23904;52.322;10.232;2023-02-12T10:59:50;8.20;99.90
38090;DHT22;23904;52.322;10.232;2023-02-12T11:02:32;8.20;99.90
38090;DHT22;23904;52.322;10.232;2023-02-12T11:05:00;8.20;99.90
38090;DHT22;23904;52.322;10.232;2023-02-12T11:07:49;8.20;99.90
38090;DHT22;23904;52.322;10.232;2023-02-12T11:10:30;8.20;99.90
38090;DHT22;23904;52.322;10.232;2023-02-12T11:13:03;8.30;99.90
38090;DHT22;23904;52.322;10.232;2023-02-12T11:15:45;8.30;99.90
38090;DHT22;23904;52.322;10.232;2023-02-12T11:18:26;8.20;99.90
38090;DHT22;23904;52.322;10.232;2023-02-12T11:21:06;8.20;99.90
38090;DHT22;23904;52.322;10.232;2023-02-12T11:23:37;8.30;99.90
38090;DHT22;23904;52.322;10.232;2023-02-12T11:29:00;8.20;99.90
38090;DHT22;23904;52.322;10.232;2023-02-12T11:31:29;8.30;99.90
38090;DHT22;23904;52.322;10.232;2023-02-12T11:34:08;8.30;99.90
38090;DHT22;23904;52.322;10.232;2023-02-12T11:36:45;8.30;99.90
38090;DHT22;23904;52.322;10.232;2023-02-12T11:39:28;8.30;99.90
38090;DHT22;23904;52.322;10.232;2023-02-12T11:42:02;8.40;99.90
38090;DHT22;23904;52.322;10.232;2023-02-12T11:44:40;8.50;99.90
38090;DHT22;23904;52.322;10.232;2023-02-12T11:47:10;8.50;99.90
38090;DHT22;23904;52.322;10.232;2023-02-12T11:49:52;8.50;99.90
38090;DHT22;23904;52.322;10.232;2023-02-12T11:52:30;8.60;99.90
38090;DHT22;23904;52.322;10.232;2023-02-12T11:55:03;8.50;99.90
38090;DHT22;23904;52.322;10.232;2023-02-12T12:00:15;8.60;99.90
38090;DHT22;23904;52.322;10.232;2023-02-12T12:02:53;8.70;99.90
38090;DHT22;23904;52.322;10.232;2023-02-12T12:05:24;8.70;99.90
38090;DHT22;23904;52.322;10.232;2023-02-12T12:07:59;8.80;99.90
38090;DHT22;23904;52.322;10.232;2023-02-12T12:10:34;8.80;99.90
38090;DHT22;23904;52.322;10.232;2023-02-12T12:13:20;8.80;99.90
38090;DHT22;23904;52.322;10.232;2023-02-12T12:15:52;8.80;99.90
38090;DHT22;23904;52.322;10.232;2023-02-12T12:18:47;8.80;99.90
38090;DHT22;23904;52.322;10.232;2023-02-12T12:24:55;8.70;99.90
38090;DHT22;23904;52.322;10.232;2023-02-12T12:27:26;8.70;99.90
38090;DHT22;23904;52.322;10.232;2023-02-12T12:30:27;8.80;99.90
38090;DHT22;23904;52.322;10.232;2023-02-12T12:33:13;8.70;99.90
38090;DHT22;23904;52.322;10.232;2023-02-12T12:35:59;8.60;99.90
38090;DHT22;23904;52.322;10.232;2023-02-12T12:38:42;8.70;99.90
38090;DHT22;23904;52.322;10.232;2023-02-12T12:41:30;8.70;99.90
38090;DHT22;23904;52.322;10.232;2023-02-12T12:44:44;8.80;99.90
38090;DHT22;23904;52.322;10.232;2023-02-12T12:47:55;8.80;99.90
38090;DHT22;23904;52.322;10.232;2023-02-12T12:50:56;8.70;99.90
38090;DHT22;23904;52.322;10.232;2023-02-12T12:53:50;8.70;99.90
38090;DHT22;23904;52.322;10.232;2023-02-12T13:05:43;8.90;99.90
38090;DHT22;23904;52.322;10.232;2023-02-12T13:11:30;8.90;99.90
38090;DHT22;23904;52.322;10.232;2023-02-12T13:14:30;9.10;99.90
38090;DHT22;23904;52.322;10.232;2023-02-12T13:20:48;9.20;99.90
38090;DHT22;23904;52.322;10.232;2023-02-12T13:23:53;9.20;99.90
38090;DHT22;23904;52.322;10.232;2023-02-12T13:29:20;9.30;99.90
38090;DHT22;23904;52.322;10.232;2023-02-12T13:32:06;9.30;99.90
38090;DHT22;23904;52.322;10.232;2023-02-12T13:34:44;9.30;99.90
38090;DHT22;23904;52.322;10.232;2023-02-12T13:37:42;9.30;99.90
38090;DHT22;23904;52.322;10.232;2023-02-12T13:40:19;9.20;99.90
38090;DHT22;23904;52.322;10.232;2023-02-12T13:43:25;9.20;99.90
38090;DHT22;23904;52.322;10.232;2023-02-12T13:46:33;9.20;99.90
38090;DHT22;23904;52.322;10.232;2023-02-12T13:49:13;9.30;99.90
38090;DHT22;23904;52.322;10.232;2023-02-12T13:54:53;9.30;99.90
38090;DHT22;23904;52.322;10.232;2023-02-12T13:57:44;9.30;99.90
38090;DHT22;23904;52.322;10.232;2023-02-12T14:03:22;9.40;99.90
38090;DHT22;23904;52.322;10.232;2023-02-12T14:08:49;9.30;99.90
38090;DHT22;23904;52.322;10.232;2023-02-12T14:11:22;9.30;99.90
38090;DHT22;23904;52.322;10.232;2023-02-12T14:14:00;9.20;99.90
38090;DHT22;23904;52.322;10.232;2023-02-12T14:22:11;9.20;99.90
38090;DHT22;23904;52.322;10.232;2023-02-12T14:24:50;9.20;99.90
38090;DHT22;23904;52.322;10.232;2023-02-12T14:27:29;9.20;99.90
38090;DHT22;23904;52.322;10.232;2023-02-12T14:35:38;9.00;99.90
38090;DHT22;23904;52.322;10.232;2023-02-12T14:43:25;8.90;99.90
38090;DHT22;23904;52.322;10.232;2023-02-12T14:45:57;9.00;99.90
38090;DHT22;23904;52.322;10.232;2023-02-12T14:53:59;8.90;99.90
38090;DHT22;23904;52.322;10.232;2023-02-12T14:56:25;8.80;99.90
38090;DHT22;23904;52.322;10.232;2023-02-12T14:58:52;8.80;99.90
38090;DHT22;23904;52.322;10.232;2023-02-12T15:01:34;8.80;99.90
38090;DHT22;23904;52.322;10.232;2023-02-12T15:04:10;8.80;99.90
38090;DHT22;23904;52.322;10.232;2023-02-12T15:07:04;8.80;99.90
38090;DHT22;23904;52.322;10.232;2023-02-12T15:09:39;8.70;99.90
38090;DHT22;23904;52.322;10.232;2023-02-12T15:12:21;8.70;99.90
38090;DHT22;23904;52.322;10.232;2023-02-12T15:15:05;8.70;99.90
38090;DHT22;23904;52.322;10.232;2023-02-12T15:17:38;8.70;99.90
38090;DHT22;23904;52.322;10.232;2023-02-12T15:20:29;8.70;99.90
38090;DHT22;23904;52.322;10.232;2023-02-12T15:22:59;8.70;99.90
38090;DHT22;23904;52.322;10.232;2023-02-12T15:25:26;8.70;99.90
38090;DHT22;23904;52.322;10.232;2023-02-12T15:27:55;8.70;99.90
38090;DHT22;23904;52.322;10.232;2023-02-12T15:30:34;8.60;99.90
38090;DHT22;23904;52.322;10.232;2023-02-12T15:33:03;8.60;99.90
38090;DHT22;23904;52.322;10.232;2023-02-12T15:35:32;8.60;99.90
38090;DHT22;23904;52.322;10.232;2023-02-12T15:38:00;8.60;99.90
38090;DHT22;23904;52.322;10.232;2023-02-12T15:40:28;8.60;99.90
38090;DHT22;23904;52.322;10.232;2023-02-12T15:43:00;8.50;99.90
38090;DHT22;23904;52.322;10.232;2023-02-12T15:45:28;8.60;99.90
38090;DHT22;23904;52.322;10.232;2023-02-12T15:50:33;8.50;99.90
38090;DHT22;23904;52.322;10.232;2023-02-12T15:53:00;8.50;99.90
38090;DHT22;23904;52.322;10.232;2023-02-12T15:55:31;8.50;99.90
38090;DHT22;23904;52.322;10.232;2023-02-12T15:58:00;8.40;99.90
38090;DHT22;23904;52.322;10.232;2023-02-12T16:00:40;8.40;99.90
38090;DHT22;23904;52.322;10.232;2023-02-12T16:03:22;8.40;99.90
38090;DHT22;23904;52.322;10.232;2023-02-12T16:05:56;8.40;99.90
38090;DHT22;23904;52.322;10.232;2023-02-12T16:08:26;8.40;99.90
38090;DHT22;23904;52.322;10.232;2023-02-12T16:10:53;8.40;99.90
38090;DHT22;23904;52.322;10.232;2023-02-12T16:13:33;8.30;99.90
38090;DHT22;23904;52.322;10.232;2023-02-12T16:16:19;8.40;99.90
38090;DHT22;23904;52.322;10.232;2023-02-12T16:19:14;8.30;99.90
38090;DHT22;23904;52.322;10.232;2023-02-12T16:21:49;8.30;99.90
38090;DHT22;23904;52.322;10.232;2023-02-12T16:24:26;8.30;99.90
38090;DHT22;23904;52.322;10.232;2023-02-12T16:26:54;8.30;99.90
38090;DHT22;23904;52.322;10.232;2023-02-12T16:29:20;8.20;99.90
38090;DHT22;23904;52.322;10.232;2023-02-12T16:32:01;8.20;99.90
38090;DHT22;23904;52.322;10.232;2023-02-12T16:34:33;8.20;99.90
38090;DHT22;23904;52.322;10.232;2023-02-12T16:37:02;8.20;99.90
38090;DHT22;23904;52.322;10.232;2023-02-12T16:42:38;8.10;99.90
38090;DHT22;23904;52.322;10.232;2023-02-12T16:47:59;8.10;99.90
38090;DHT22;23904;52.322;10.232;2023-02-12T16:50:32;8.10;99.90
38090;DHT22;23904;52.322;10.232;2023-02-12T16:53:03;8.00;99.90
38090;DHT22;23904;52.322;10.232;2023-02-12T16:55:39;8.00;99.90
38090;DHT22;23904;52.322;10.232;2023-02-12T16:58:07;8.00;99.90
38090;DHT22;23904;52.322;10.232;2023-02-12T17:00:32;8.10;99.90
38090;DHT22;23904;52.322;10.232;2023-02-12T17:02:58;8.10;99.90
38090;DHT22;23904;52.322;10.232;2023-02-12T17:05:24;8.00;99.90
38090;DHT22;23904;52.322;10.232;2023-02-12T17:07:49;8.00;99.90
38090;DHT22;23904;52.322;10.232;2023-02-12T17:10:15;8.00;99.90
38090;DHT22;23904;52.322;10.232;2023-02-12T17:12:49;8.00;99.90
38090;DHT22;23904;52.322;10.232;2023-02-12T17:15:23;8.00;99.90
38090;DHT22;23904;52.322;10.232;2023-02-12T17:17:52;8.00;99.90
38090;DHT22;23904;52.322;10.232;2023-02-12T17:20:18;8.00;99.90
38090;DHT22;23904;52.322;10.232;2023-02-12T17:22:49;7.90;99.90
38090;DHT22;23904;52.322;10.232;2023-02-12T17:25:16;7.90;99.90
38090;DHT22;23904;52.322;10.232;2023-02-12T17:27:41;7.90;99.90
38090;DHT22;23904;52.322;10.232;2023-02-12T17:30:09;7.90;99.90
38090;DHT22;23904;52.322;10.232;2023-02-12T17:32:39;7.90;99.90
38090;DHT22;23904;52.322;10.232;2023-02-12T17:35:04;7.90;99.90
38090;DHT22;23904;52.322;10.232;2023-02-12T17:37:31;7.90;99.90
38090;DHT22;23904;52.322;10.232;2023-02-12T17:39:56;7.90;99.90
38090;DHT22;23904;52.322;10.232;2023-02-12T17:42:22;7.90;99.90
38090;DHT22;23904;52.322;10.232;2023-02-12T17:44:47;8.00;99.90
38090;DHT22;23904;52.322;10.232;2023-02-12T17:47:13;7.90;99.90
38090;DHT22;23904;52.322;10.232;2023-02-12T17:49:38;8.00;99.90
38090;DHT22;23904;52.322;10.232;2023-02-12T17:52:04;8.00;99.90